createdAt,value
2019-02-02T00:02:08.635Z,23.27
2019-02-02T00:04:37.488Z,23.87
2019-02-02T00:07:06.322Z,22.57
2019-02-02T00:09:35.087Z,21.60
2019-02-02T00:12:03.910Z,21.90
2019-02-02T00:14:32.752Z,23.00
2019-02-02T00:17:01.536Z,22.27
2019-02-02T00:19:30.320Z,21.87
2019-02-02T00:21:59.167Z,20.53
2019-02-02T00:24:27.972Z,21.20
2019-02-02T00:26:56.765Z,21.43
2019-02-02T00:29:25.553Z,20.90
2019-02-02T00:31:54.341Z,21.67
2019-02-02T00:34:23.132Z,20.13
2019-02-02T00:36:52.009Z,21.00
2019-02-02T00:39:20.811Z,22.00
2019-02-02T00:41:49.644Z,22.93
2019-02-02T00:44:18.517Z,21.83
2019-02-02T00:46:47.378Z,21.10
2019-02-02T00:49:16.215Z,21.60
2019-02-02T00:51:45.016Z,23.80
2019-02-02T00:54:13.877Z,21.53
2019-02-02T00:56:42.844Z,23.47
2019-02-02T00:59:11.671Z,22.73
2019-02-02T01:01:40.524Z,24.60
2019-02-02T01:04:09.333Z,24.80
2019-02-02T01:06:38.118Z,24.97
2019-02-02T01:09:13.167Z,23.53
2019-02-02T01:11:42.008Z,24.83
2019-02-02T01:14:10.808Z,24.37
2019-02-02T01:16:39.648Z,24.33
2019-02-02T01:19:08.566Z,25.07
2019-02-02T01:21:37.400Z,25.53
2019-02-02T01:24:06.190Z,26.10
2019-02-02T01:26:35.039Z,24.73
2019-02-02T01:29:03.867Z,25.17
2019-02-02T01:31:32.643Z,25.63
2019-02-02T01:34:01.460Z,25.00
2019-02-02T01:36:30.274Z,26.77
2019-02-02T01:38:59.053Z,26.57
2019-02-02T01:41:27.838Z,27.23
2019-02-02T01:43:56.626Z,26.07
2019-02-02T01:46:25.442Z,28.60
2019-02-02T01:48:54.210Z,27.80
2019-02-02T01:51:23.053Z,27.87
2019-02-02T01:53:51.876Z,26.10
2019-02-02T01:56:20.647Z,27.33
2019-02-02T01:58:49.476Z,27.07
2019-02-02T02:01:18.247Z,27.03
2019-02-02T02:03:47.073Z,24.83
2019-02-02T02:06:15.910Z,27.70
2019-02-02T02:08:44.800Z,34.03
2019-02-02T02:11:13.703Z,27.20
2019-02-02T02:13:42.567Z,29.00
2019-02-02T02:16:11.358Z,28.53
2019-02-02T02:18:40.233Z,26.87
2019-02-02T02:21:09.009Z,27.93
2019-02-02T02:23:37.836Z,28.03
2019-02-02T02:26:06.722Z,27.50
2019-02-02T02:28:35.551Z,27.97
2019-02-02T02:31:04.335Z,28.17
2019-02-02T02:33:33.205Z,28.43
2019-02-02T02:36:02.049Z,26.93
2019-02-02T02:38:30.904Z,28.63
2019-02-02T02:40:59.766Z,27.43
2019-02-02T02:43:28.594Z,26.70
2019-02-02T02:45:57.381Z,27.97
2019-02-02T02:48:26.190Z,28.67
2019-02-02T02:50:55.094Z,31.03
2019-02-02T02:53:23.907Z,29.43
2019-02-02T02:55:52.655Z,30.67
2019-02-02T02:58:21.432Z,30.30
2019-02-02T03:00:50.223Z,30.07
2019-02-02T03:03:19.113Z,28.97
2019-02-02T03:05:47.982Z,28.97
2019-02-02T03:08:16.844Z,31.93
2019-02-02T03:10:45.712Z,30.20
2019-02-02T03:13:14.476Z,30.97
2019-02-02T03:15:43.383Z,32.13
2019-02-02T03:18:12.288Z,31.60
2019-02-02T03:20:41.120Z,32.87
2019-02-02T03:23:09.954Z,34.43
2019-02-02T03:25:38.778Z,33.57
2019-02-02T03:28:07.634Z,34.67
2019-02-02T03:30:38.119Z,34.37
2019-02-02T03:33:07.066Z,33.37
2019-02-02T03:35:36.045Z,34.53
2019-02-02T03:38:04.978Z,35.60
2019-02-02T03:40:33.863Z,34.93
2019-02-02T03:43:02.685Z,35.40
2019-02-02T03:45:31.469Z,35.10
2019-02-02T03:48:00.288Z,34.00
2019-02-02T03:50:29.210Z,35.37
2019-02-02T03:52:57.981Z,36.37
2019-02-02T03:55:26.753Z,35.67
2019-02-02T03:57:55.545Z,36.53
2019-02-02T04:00:24.357Z,36.70
2019-02-02T04:02:53.253Z,35.37
2019-02-02T04:05:24.430Z,36.73
2019-02-02T04:07:53.219Z,36.13
2019-02-02T04:10:21.982Z,36.97
2019-02-02T04:12:50.815Z,38.83
2019-02-02T04:15:19.624Z,38.17
2019-02-02T04:17:48.431Z,40.23
2019-02-02T04:20:18.980Z,39.47
2019-02-02T04:22:47.855Z,38.77
2019-02-02T04:25:17.465Z,37.80
2019-02-02T04:27:46.280Z,39.50
2019-02-02T04:30:19.311Z,38.13
2019-02-02T04:32:48.152Z,40.20
2019-02-02T04:35:16.991Z,38.63
2019-02-02T04:37:45.834Z,39.07
2019-02-02T04:40:14.654Z,41.27
2019-02-02T04:42:43.473Z,41.57
2019-02-02T04:45:12.811Z,39.47
2019-02-02T04:47:41.641Z,40.13
2019-02-02T04:50:12.617Z,39.23
2019-02-02T04:52:41.393Z,42.30
2019-02-02T04:55:10.686Z,39.60
2019-02-02T04:57:39.519Z,43.30
2019-02-02T05:00:11.551Z,41.00
2019-02-02T05:02:40.395Z,40.03
2019-02-02T05:05:11.104Z,40.10
2019-02-02T05:07:39.869Z,42.10
2019-02-02T05:10:10.387Z,39.93
2019-02-02T05:12:39.213Z,38.43
2019-02-02T05:15:08.021Z,40.77
2019-02-02T05:17:36.855Z,41.67
2019-02-02T05:20:06.080Z,40.30
2019-02-02T05:22:34.971Z,39.23
2019-02-02T05:25:03.734Z,40.37
2019-02-02T05:27:32.515Z,41.27
2019-02-02T05:30:01.391Z,41.40
2019-02-02T05:32:30.242Z,40.80
2019-02-02T05:34:59.031Z,40.17
2019-02-02T05:37:27.947Z,40.90
2019-02-02T05:39:56.741Z,42.43
2019-02-02T05:42:25.624Z,42.43
2019-02-02T05:44:54.487Z,43.07
2019-02-02T05:47:23.325Z,40.27
2019-02-02T05:49:52.151Z,42.73
2019-02-02T05:52:20.976Z,43.80
2019-02-02T05:54:49.820Z,43.27
2019-02-02T05:57:18.607Z,42.57
2019-02-02T05:59:52.823Z,44.67
2019-02-02T06:02:16.228Z,44.60
2019-02-02T06:04:45.000Z,44.87
2019-02-02T06:07:13.858Z,42.40
2019-02-02T06:09:42.663Z,42.73
2019-02-02T06:12:11.435Z,42.90
2019-02-02T06:14:40.295Z,41.80
2019-02-02T06:17:09.211Z,45.50
2019-02-02T06:19:38.088Z,43.00
2019-02-02T06:22:06.967Z,44.23
2019-02-02T06:24:35.775Z,45.23
2019-02-02T06:27:04.652Z,43.60
2019-02-02T06:29:33.426Z,42.47
2019-02-02T06:32:11.406Z,44.07
2019-02-02T06:34:31.039Z,43.00
2019-02-02T06:36:59.812Z,42.13
2019-02-02T06:39:28.670Z,42.87
2019-02-02T06:41:57.559Z,43.80
2019-02-02T06:44:26.345Z,43.87
2019-02-02T06:46:55.191Z,43.10
2019-02-02T06:49:24.018Z,42.90
2019-02-02T06:51:52.830Z,42.50
2019-02-02T06:54:21.666Z,43.57
2019-02-02T06:56:50.470Z,40.83
2019-02-02T06:59:19.260Z,43.67
2019-02-02T07:01:48.054Z,42.77
2019-02-02T07:04:17.039Z,43.07
2019-02-02T07:06:45.847Z,42.90
2019-02-02T07:09:14.629Z,44.13
2019-02-02T07:11:43.561Z,45.13
2019-02-02T07:14:12.342Z,42.77
2019-02-02T07:16:41.226Z,44.33
2019-02-02T07:19:10.011Z,41.67
2019-02-02T07:21:38.803Z,41.07
2019-02-02T07:24:12.053Z,41.67
2019-02-02T07:26:40.798Z,43.17
2019-02-02T07:29:09.722Z,44.17
2019-02-02T07:31:38.639Z,44.87
2019-02-02T07:34:07.443Z,43.30
2019-02-02T07:36:36.229Z,44.93
2019-02-02T07:39:06.797Z,44.00
2019-02-02T07:41:35.568Z,45.87
2019-02-02T07:44:04.701Z,42.30
2019-02-02T07:46:33.623Z,55.27
2019-02-02T07:49:02.423Z,47.73
2019-02-02T07:51:31.273Z,45.10
2019-02-02T07:54:00.126Z,44.10
2019-02-02T07:56:28.974Z,46.27
2019-02-02T07:59:00.080Z,43.50
2019-02-02T08:01:29.907Z,41.40
2019-02-02T08:03:59.108Z,43.07
2019-02-02T08:06:27.897Z,42.67
2019-02-02T08:08:56.782Z,43.77
2019-02-02T08:11:25.610Z,42.10
2019-02-02T08:13:54.464Z,43.43
2019-02-02T08:16:23.374Z,43.93
2019-02-02T08:18:52.143Z,43.07
2019-02-02T08:21:22.473Z,42.93
2019-02-02T08:23:51.329Z,42.50
2019-02-02T08:26:20.126Z,46.47
2019-02-02T08:28:49.024Z,43.87
2019-02-02T08:31:17.863Z,46.07
2019-02-02T08:33:46.704Z,45.90
2019-02-02T08:36:15.483Z,44.17
2019-02-02T08:38:44.347Z,43.40
2019-02-02T08:41:13.223Z,45.03
2019-02-02T08:43:41.995Z,42.17
2019-02-02T08:46:10.805Z,45.13
2019-02-02T08:48:39.592Z,45.40
2019-02-02T08:51:08.371Z,46.07
2019-02-02T08:53:37.354Z,46.77
2019-02-02T08:56:06.264Z,45.33
2019-02-02T08:58:35.099Z,45.73
2019-02-02T09:01:04.519Z,50.27
2019-02-02T09:03:32.721Z,47.97
2019-02-02T09:06:01.504Z,46.00
2019-02-02T09:08:30.354Z,46.80
2019-02-02T09:10:59.162Z,46.37
2019-02-02T09:13:27.983Z,47.47
2019-02-02T09:15:56.793Z,49.57
2019-02-02T09:18:25.756Z,48.80
2019-02-02T09:20:54.652Z,48.70
2019-02-02T09:23:23.428Z,46.47
2019-02-02T09:25:59.388Z,49.03
2019-02-02T09:28:28.255Z,48.13
2019-02-02T09:30:57.095Z,48.90
2019-02-02T09:33:25.901Z,49.40
2019-02-02T09:35:54.725Z,49.40
2019-02-02T09:38:23.550Z,49.23
2019-02-02T09:40:52.331Z,51.40
2019-02-02T09:43:21.134Z,52.40
2019-02-02T09:45:49.955Z,50.60
2019-02-02T09:48:19.290Z,50.20
2019-02-02T09:50:48.074Z,53.50
2019-02-02T09:53:16.895Z,50.27
2019-02-02T09:55:45.755Z,50.50
2019-02-02T09:58:14.512Z,51.77
2019-02-02T10:00:43.469Z,51.70
2019-02-02T10:03:12.274Z,49.83
2019-02-02T10:05:41.204Z,55.10
2019-02-02T10:08:09.975Z,52.17
2019-02-02T10:10:38.897Z,53.13
2019-02-02T10:13:08.073Z,51.60
2019-02-02T10:15:36.971Z,51.17
2019-02-02T10:18:06.168Z,51.10
2019-02-02T10:20:34.952Z,52.40
2019-02-02T10:23:03.725Z,50.83
2019-02-02T10:25:32.525Z,53.40
2019-02-02T10:28:01.339Z,49.23
2019-02-02T10:30:34.056Z,52.83
2019-02-02T10:33:02.831Z,52.40
2019-02-02T10:35:31.711Z,52.97
2019-02-02T10:38:00.500Z,52.70
2019-02-02T10:40:30.016Z,51.30
2019-02-02T10:42:58.142Z,51.60
2019-02-02T10:45:26.983Z,50.10
2019-02-02T10:47:55.787Z,52.77
2019-02-02T10:50:24.627Z,53.53
2019-02-02T10:52:53.431Z,51.50
2019-02-02T10:55:22.262Z,48.47
2019-02-02T10:57:51.123Z,52.13
2019-02-02T11:00:22.858Z,52.33
2019-02-02T11:02:51.675Z,49.57
2019-02-02T11:05:20.466Z,50.50
2019-02-02T11:07:49.265Z,48.00
2019-02-02T11:10:20.394Z,49.90
2019-02-02T11:12:49.145Z,47.80
2019-02-02T11:15:18.374Z,49.20
2019-02-02T11:17:47.126Z,46.83
2019-02-02T11:20:18.188Z,47.80
2019-02-02T11:22:46.917Z,46.40
2019-02-02T11:25:15.870Z,46.97
2019-02-02T11:27:44.573Z,49.00
2019-02-02T11:30:14.473Z,49.20
2019-02-02T11:32:43.813Z,49.07
2019-02-02T11:35:13.575Z,45.77
2019-02-02T11:37:42.382Z,46.73
2019-02-02T11:40:15.835Z,50.03
2019-02-02T11:42:44.617Z,49.37
2019-02-02T11:45:13.477Z,49.33
2019-02-02T11:47:42.465Z,49.07
2019-02-02T11:50:12.796Z,51.53
2019-02-02T11:52:42.081Z,50.60
2019-02-02T11:55:11.822Z,52.27
2019-02-02T11:57:40.658Z,49.17
2019-02-02T12:00:17.726Z,49.47
2019-02-02T12:02:49.437Z,47.27
2019-02-02T12:05:15.348Z,48.53
2019-02-02T12:07:44.126Z,47.63
2019-02-02T12:10:14.730Z,48.77
2019-02-02T12:12:43.611Z,49.43
2019-02-02T12:15:13.860Z,47.57
2019-02-02T12:17:42.696Z,48.20
2019-02-02T12:20:13.102Z,46.17
2019-02-02T12:22:41.895Z,49.63
2019-02-02T12:25:10.780Z,46.60
2019-02-02T12:27:39.592Z,46.23
2019-02-02T12:30:11.137Z,45.50
2019-02-02T12:32:39.917Z,48.67
2019-02-02T12:35:10.903Z,45.10
2019-02-02T12:37:39.690Z,47.37
2019-02-02T12:40:09.606Z,45.63
2019-02-02T12:42:38.544Z,43.27
2019-02-02T12:45:10.769Z,46.93
2019-02-02T12:47:39.599Z,45.57
2019-02-02T12:50:09.151Z,46.47
2019-02-02T12:52:38.606Z,44.47
2019-02-02T12:55:07.467Z,45.60
2019-02-02T12:57:36.244Z,46.17
2019-02-02T13:00:07.407Z,45.57
2019-02-02T13:02:38.252Z,46.60
2019-02-02T13:05:05.454Z,45.57
2019-02-02T13:07:34.304Z,45.37
2019-02-02T13:10:03.143Z,47.27
2019-02-02T13:12:31.977Z,47.07
2019-02-02T13:15:00.841Z,49.50
2019-02-02T13:17:29.705Z,49.30
2019-02-02T13:19:58.547Z,48.43
2019-02-02T13:22:27.445Z,46.83
2019-02-02T13:24:56.244Z,46.83
2019-02-02T13:27:25.054Z,46.73
2019-02-02T13:29:53.896Z,48.57
2019-02-02T13:32:22.708Z,46.83
2019-02-02T13:34:51.491Z,47.40
2019-02-02T13:37:20.400Z,44.23
2019-02-02T13:39:49.213Z,40.83
2019-02-02T13:42:18.005Z,45.03
2019-02-02T13:44:46.818Z,40.80
2019-02-02T13:47:15.648Z,43.73
2019-02-02T13:49:44.727Z,42.27
2019-02-02T13:52:13.577Z,42.10
2019-02-02T13:54:42.409Z,43.60
2019-02-02T13:57:11.262Z,40.83
2019-02-02T13:59:40.164Z,41.63
2019-02-02T14:02:09.169Z,40.87
2019-02-02T14:04:38.057Z,40.87
2019-02-02T14:07:17.441Z,43.50
2019-02-02T14:09:35.782Z,40.10
2019-02-02T14:12:04.622Z,40.17
2019-02-02T14:14:33.752Z,40.53
2019-02-02T14:17:02.559Z,38.97
2019-02-02T14:19:31.463Z,40.07
2019-02-02T14:22:00.157Z,40.53
2019-02-02T14:24:29.032Z,39.07
2019-02-02T14:26:57.843Z,36.67
2019-02-02T14:29:26.728Z,37.90
2019-02-02T14:31:55.676Z,35.70
2019-02-02T14:34:24.528Z,35.70
2019-02-02T14:36:53.318Z,35.57
2019-02-02T14:39:22.247Z,36.80
2019-02-02T14:41:51.199Z,37.73
2019-02-02T14:44:19.956Z,35.67
2019-02-02T14:46:48.768Z,34.57
2019-02-02T14:49:17.600Z,34.67
2019-02-02T14:51:46.426Z,36.30
2019-02-02T14:54:15.251Z,38.33
2019-02-02T14:56:47.985Z,34.57
2019-02-02T14:59:12.815Z,35.43
2019-02-02T15:01:41.598Z,38.63
2019-02-02T15:04:10.440Z,37.33
2019-02-02T15:06:39.322Z,38.27
2019-02-02T15:09:08.503Z,36.30
2019-02-02T15:11:37.363Z,36.27
2019-02-02T15:14:06.211Z,37.00
2019-02-02T15:16:34.986Z,38.77
2019-02-02T15:19:03.853Z,38.87
2019-02-02T15:21:32.750Z,37.10
2019-02-02T15:24:01.562Z,38.10
2019-02-02T15:26:30.364Z,39.37
2019-02-02T15:28:59.165Z,39.53
2019-02-02T15:31:27.956Z,40.27
2019-02-02T15:33:56.735Z,39.30
2019-02-02T15:36:25.678Z,40.10
2019-02-02T15:38:54.451Z,41.23
2019-02-02T15:41:23.328Z,40.60
2019-02-02T15:43:52.135Z,40.27
2019-02-02T15:46:20.983Z,43.63
2019-02-02T15:48:49.902Z,43.37
2019-02-02T15:51:18.714Z,44.70
2019-02-02T15:53:48.841Z,47.03
2019-02-02T15:56:16.334Z,47.13
2019-02-02T15:58:45.176Z,44.90
2019-02-02T16:01:14.098Z,48.60
2019-02-02T16:06:18.098Z,48.20
2019-02-02T16:08:46.980Z,48.50
2019-02-02T16:11:15.760Z,50.87
2019-02-02T16:13:44.599Z,51.43
2019-02-02T16:16:14.277Z,46.20
2019-02-02T16:18:43.154Z,49.20
2019-02-02T16:21:12.015Z,49.53
2019-02-02T16:23:40.798Z,51.03
2019-02-02T16:26:09.666Z,46.70
2019-02-02T16:28:38.583Z,50.37
2019-02-02T16:31:07.344Z,49.37
2019-02-02T16:33:36.224Z,49.27
2019-02-02T16:36:05.159Z,47.20
2019-02-02T16:38:33.942Z,50.80
2019-02-02T16:41:02.831Z,49.07
2019-02-02T16:43:31.741Z,48.70
2019-02-02T16:46:01.108Z,48.57
2019-02-02T16:48:29.886Z,43.13
2019-02-02T16:50:58.709Z,47.30
2019-02-02T16:53:27.565Z,44.57
2019-02-02T16:55:56.354Z,44.97
2019-02-02T16:58:25.207Z,46.00
2019-02-02T17:00:53.999Z,45.43
2019-02-02T17:03:22.824Z,45.90
2019-02-02T17:05:51.615Z,41.17
2019-02-02T17:08:20.492Z,41.90
2019-02-02T17:10:49.300Z,43.20
2019-02-02T17:13:18.126Z,46.00
2019-02-02T17:15:46.953Z,45.50
2019-02-02T17:18:24.658Z,41.00
2019-02-02T17:20:53.549Z,42.60
2019-02-02T17:23:22.460Z,40.23
2019-02-02T17:25:51.295Z,40.93
2019-02-02T17:28:20.214Z,44.30
2019-02-02T17:30:49.082Z,41.90
2019-02-02T17:33:17.879Z,40.87
2019-02-02T17:35:46.685Z,43.37
2019-02-02T17:38:15.483Z,42.37
2019-02-02T17:40:44.277Z,45.50
2019-02-02T17:43:13.133Z,43.33
2019-02-02T17:45:41.934Z,44.90
2019-02-02T17:48:12.987Z,46.13
2019-02-02T17:50:39.567Z,41.97
2019-02-02T17:53:08.372Z,40.10
2019-02-02T17:55:37.152Z,45.50
2019-02-02T17:58:07.224Z,45.37
2019-02-02T18:00:41.600Z,43.37
2019-02-02T18:03:10.461Z,57.23
2019-02-02T18:05:39.253Z,47.83
2019-02-02T18:08:08.125Z,46.83
2019-02-02T18:10:36.987Z,43.83
2019-02-02T18:13:05.796Z,45.07
2019-02-02T18:15:34.615Z,44.60
2019-02-02T18:18:03.402Z,43.30
2019-02-02T18:20:32.298Z,42.37
2019-02-02T18:23:01.130Z,41.70
2019-02-02T18:25:29.942Z,45.57
2019-02-02T18:27:58.793Z,43.97
2019-02-02T18:30:27.590Z,42.83
2019-02-02T18:32:56.444Z,45.07
2019-02-02T18:35:25.259Z,44.00
2019-02-02T18:37:54.135Z,44.27
2019-02-02T18:40:23.064Z,46.50
2019-02-02T18:42:51.851Z,46.27
2019-02-02T18:45:22.673Z,43.97
2019-02-02T18:47:51.507Z,47.13
2019-02-02T18:50:20.303Z,48.70
2019-02-02T18:52:49.240Z,48.00
2019-02-02T18:55:20.914Z,50.00
2019-02-02T18:57:49.812Z,48.57
2019-02-02T19:00:19.470Z,51.13
2019-02-02T19:02:48.307Z,51.60
2019-02-02T19:05:17.285Z,47.80
2019-02-02T19:07:45.959Z,48.13
2019-02-02T19:10:17.327Z,52.53
2019-02-02T19:12:46.586Z,52.90
2019-02-02T19:15:15.389Z,55.13
2019-02-02T19:17:44.181Z,57.73
2019-02-02T19:20:15.451Z,57.17
2019-02-02T19:22:44.353Z,58.10
2019-02-02T19:25:13.142Z,57.93
2019-02-02T19:27:41.951Z,57.37
2019-02-02T19:30:14.503Z,55.00
2019-02-02T19:32:43.430Z,56.60
2019-02-02T19:35:16.090Z,59.43
2019-02-02T19:37:41.033Z,57.53
2019-02-02T19:40:10.470Z,62.17
2019-02-02T19:42:39.325Z,59.40
2019-02-02T19:45:09.277Z,60.70
2019-02-02T19:47:38.105Z,62.07
2019-02-02T19:50:08.341Z,62.47
2019-02-02T19:52:40.178Z,61.33
2019-02-02T19:55:14.332Z,60.53
2019-02-02T19:57:35.253Z,60.57
2019-02-02T20:00:05.284Z,61.87
2019-02-02T20:02:34.068Z,58.33
2019-02-02T20:05:02.865Z,63.57
2019-02-02T20:07:31.690Z,67.27
2019-02-02T20:10:00.467Z,66.53
2019-02-02T20:12:29.252Z,65.67
2019-02-02T20:14:58.674Z,67.90
2019-02-02T20:17:27.443Z,72.43
2019-02-02T20:19:56.262Z,64.13
2019-02-02T20:22:25.163Z,64.83
2019-02-02T20:24:53.966Z,71.30
2019-02-02T20:27:22.835Z,65.13
2019-02-02T20:29:51.638Z,64.90
2019-02-02T20:32:20.545Z,61.90
2019-02-02T20:34:49.314Z,62.67
2019-02-02T20:37:18.501Z,74.37
2019-02-02T20:39:47.363Z,61.20
2019-02-02T20:42:16.145Z,60.70
2019-02-02T20:44:44.976Z,63.20
2019-02-02T20:47:13.751Z,59.70
2019-02-02T20:49:42.618Z,64.37
2019-02-02T20:52:11.528Z,63.10
2019-02-02T20:54:40.360Z,63.30
2019-02-02T20:57:09.186Z,66.97
2019-02-02T20:59:38.055Z,63.77
2019-02-02T21:02:06.892Z,72.80
2019-02-02T21:04:35.768Z,70.03
2019-02-02T21:07:04.630Z,63.93
2019-02-02T21:09:33.447Z,61.20
2019-02-02T21:12:02.296Z,74.20
2019-02-02T21:14:31.096Z,67.20
2019-02-02T21:16:59.958Z,62.83
2019-02-02T21:19:28.883Z,62.50
2019-02-02T21:21:57.702Z,67.17
2019-02-02T21:24:27.241Z,63.90
2019-02-02T21:26:55.356Z,64.33
2019-02-02T21:29:24.165Z,62.67
2019-02-02T21:31:52.957Z,63.13
2019-02-02T21:34:22.602Z,66.70
2019-02-02T21:36:51.473Z,63.30
2019-02-02T21:39:20.390Z,61.53
2019-02-02T21:41:49.267Z,63.27
2019-02-02T21:44:18.125Z,60.17
2019-02-02T21:46:46.954Z,72.70
2019-02-02T21:49:15.779Z,62.10
2019-02-02T21:51:44.582Z,64.20
2019-02-02T21:54:13.474Z,64.80
2019-02-02T21:56:42.323Z,63.27
2019-02-02T21:59:11.238Z,62.20
2019-02-02T22:01:40.082Z,64.73
2019-02-02T22:04:09.061Z,62.60
2019-02-02T22:06:38.962Z,60.97
2019-02-02T22:09:08.236Z,62.77
2019-02-02T22:11:37.022Z,61.23
2019-02-02T22:14:05.871Z,58.63
2019-02-02T22:16:34.683Z,58.97
2019-02-02T22:19:03.497Z,56.87
2019-02-02T22:21:32.284Z,57.13
2019-02-02T22:24:01.160Z,56.03
2019-02-02T22:26:29.986Z,55.87
2019-02-02T22:28:58.842Z,56.10
2019-02-02T22:31:27.719Z,60.50
2019-02-02T22:33:56.561Z,53.50
2019-02-02T22:36:27.579Z,53.67
2019-02-02T22:38:54.196Z,70.53
2019-02-02T22:41:22.994Z,59.03
2019-02-02T22:43:51.837Z,51.63
2019-02-02T22:46:20.643Z,54.93
2019-02-02T22:48:49.502Z,52.97
2019-02-02T22:51:18.353Z,54.23
2019-02-02T22:53:47.194Z,54.87
2019-02-02T22:56:15.993Z,53.67
2019-02-02T22:58:44.799Z,55.87
2019-02-02T23:01:23.799Z,65.47
2019-02-02T23:04:05.493Z,53.73
2019-02-02T23:06:45.077Z,50.90
2019-02-02T23:09:25.002Z,50.63
2019-02-02T23:12:06.287Z,44.03
2019-02-02T23:14:45.283Z,47.23
2019-02-02T23:17:14.083Z,42.13
2019-02-02T23:19:42.875Z,48.53
2019-02-02T23:22:11.709Z,45.90
2019-02-02T23:24:40.510Z,46.17
2019-02-02T23:27:09.374Z,49.27
2019-02-02T23:29:38.178Z,49.70
2019-02-02T23:32:07.008Z,50.20
2019-02-02T23:34:35.805Z,52.07
2019-02-02T23:37:04.615Z,53.93
2019-02-02T23:39:33.423Z,54.33
2019-02-02T23:42:02.220Z,53.23
2019-02-02T23:44:31.019Z,53.40
2019-02-02T23:46:59.824Z,52.53
2019-02-02T23:49:28.775Z,53.67
2019-02-02T23:51:57.640Z,57.43
2019-02-02T23:54:26.476Z,57.67
2019-02-02T23:56:55.276Z,55.20
2019-02-02T23:59:24.076Z,54.37
